Time;durP1;ratioP1;P1;durP2;ratioP2;P2;SDS_P1;SDS_P2;PMS_P1;PMS_P2;Temp;Humidity;BMP_temperature;BMP_pressure;BME280_temperature;BME280_humidity;BME280_pressure;Samples;Min_cycle;Max_cycle;Signal;HPM_P1;HPM_P2
2023/10/20 00:02:35;;;;;;;14.75;11.15;;;8.80;99.90;;;;;;5029944;28;20052;-70
2023/10/20 00:05:21;;;;;;;15.68;12.32;;;8.90;99.90;;;;;;5015875;28;20071;-70
2023/10/20 00:08:07;;;;;;;15.73;12.77;;;8.80;99.90;;;;;;5028996;28;20438;-70
2023/10/20 00:10:57;;;;;;;15.80;11.18;;;8.80;99.90;;;;;;5017714;28;20471;-70
2023/10/20 00:13:43;;;;;;;17.67;12.45;;;8.80;99.90;;;;;;5029814;28;20061;-70
2023/10/20 00:16:29;;;;;;;16.58;12.15;;;8.80;99.90;;;;;;5031156;28;20038;-70
2023/10/20 00:19:17;;;;;;;16.70;11.88;;;8.80;99.90;;;;;;5029763;28;20045;-70
2023/10/20 00:22:03;;;;;;;14.75;11.60;;;8.80;99.90;;;;;;5031138;28;20132;-71
2023/10/20 00:24:49;;;;;;;16.25;12.13;;;8.80;99.90;;;;;;5030523;28;20056;-70
2023/10/20 00:27:35;;;;;;;17.05;12.15;;;8.80;99.90;;;;;;5042194;28;20045;-70
2023/10/20 00:30:21;;;;;;;15.80;11.82;;;8.80;99.90;;;;;;5029000;28;20092;-70
2023/10/20 00:33:07;;;;;;;16.63;12.50;;;8.80;99.90;;;;;;5040305;28;20045;-72
2023/10/20 00:35:53;;;;;;;16.63;12.07;;;8.80;99.90;;;;;;5030447;28;20571;-71
2023/10/20 00:38:39;;;;;;;17.20;11.13;;;8.80;99.90;;;;;;5048693;28;20402;-72
2023/10/20 00:41:25;;;;;;;16.15;12.57;;;8.80;99.90;;;;;;5043321;28;20407;-71
2023/10/20 00:44:11;;;;;;;15.85;11.30;;;8.80;99.90;;;;;;5031720;28;20087;-72
2023/10/20 00:46:58;;;;;;;16.13;12.45;;;8.80;99.90;;;;;;5038994;28;20056;-72
2023/10/20 00:49:45;;;;;;;14.93;10.93;;;8.80;99.90;;;;;;5049055;28;20078;-73
2023/10/20 00:52:35;;;;;;;16.70;11.60;;;8.80;99.90;;;;;;5035546;28;20103;-72
2023/10/20 00:55:23;;;;;;;15.10;10.15;;;8.70;99.90;;;;;;5042400;28;20068;-71
2023/10/20 00:58:09;;;;;;;14.20;10.20;;;8.70;99.90;;;;;;5041558;28;20048;-70
2023/10/20 01:00:55;;;;;;;14.35;11.77;;;8.70;99.90;;;;;;5031036;28;20132;-71
2023/10/20 01:03:41;;;;;;;15.02;10.95;;;8.80;99.90;;;;;;5031747;28;20052;-71
2023/10/20 01:06:28;;;;;;;15.90;11.05;;;8.70;99.90;;;;;;5018122;28;20474;-72
2023/10/20 01:09:26;;;;;;;12.93;10.27;;;8.80;99.90;;;;;;5034733;28;20499;-71
2023/10/20 01:12:12;;;;;;;14.40;10.57;;;8.80;99.90;;;;;;5049311;28;20091;-70
2023/10/20 01:15:01;;;;;;;13.52;10.35;;;8.80;99.90;;;;;;5033084;28;20045;-72
2023/10/20 01:17:48;;;;;;;14.38;10.98;;;8.80;99.90;;;;;;5028729;28;20034;-70
2023/10/20 01:20:33;;;;;;;13.40;10.95;;;8.80;99.90;;;;;;5028054;28;20152;-72
2023/10/20 01:23:19;;;;;;;14.82;11.10;;;8.80;99.90;;;;;;5028517;28;20145;-72
2023/10/20 01:26:05;;;;;;;13.38;10.27;;;8.90;99.90;;;;;;5031560;28;20045;-72
2023/10/20 01:28:51;;;;;;;16.15;11.32;;;8.80;99.90;;;;;;5032227;28;20036;-71
2023/10/20 01:31:38;;;;;;;12.57;10.18;;;8.90;99.90;;;;;;5045456;28;20120;-71
2023/10/20 01:34:24;;;;;;;14.63;10.13;;;8.90;99.90;;;;;;5048750;28;20044;-71
2023/10/20 01:37:14;;;;;;;13.63;10.25;;;8.90;99.90;;;;;;5038528;28;20045;-70
2023/10/20 01:40:01;;;;;;;13.82;10.15;;;8.90;99.90;;;;;;5032623;28;20048;-73
2023/10/20 01:42:47;;;;;;;12.57;10.02;;;8.90;99.90;;;;;;5029931;28;20041;-71
2023/10/20 01:45:32;;;;;;;11.18;9.85;;;8.90;99.90;;;;;;5028426;28;20051;-71
2023/10/20 01:48:19;;;;;;;12.32;9.50;;;8.90;99.90;;;;;;5037940;28;20099;-71
2023/10/20 01:51:05;;;;;;;11.93;9.63;;;8.90;99.90;;;;;;5051225;28;20091;-71
2023/10/20 01:53:51;;;;;;;13.68;10.55;;;8.90;99.90;;;;;;5051532;28;20190;-71
2023/10/20 01:56:37;;;;;;;11.35;8.77;;;8.90;99.90;;;;;;5051537;28;20040;-72
2023/10/20 01:59:23;;;;;;;10.15;7.75;;;8.90;99.90;;;;;;5052554;28;20592;-72
2023/10/20 02:02:10;;;;;;;10.52;7.68;;;8.90;99.90;;;;;;5051784;28;20041;-71
2023/10/20 02:04:56;;;;;;;10.93;8.45;;;8.90;99.90;;;;;;5056318;28;20029;-70
2023/10/20 02:07:42;;;;;;;11.43;8.90;;;8.90;99.90;;;;;;5043600;28;20142;-71
2023/10/20 02:10:28;;;;;;;10.32;8.27;;;8.90;99.90;;;;;;5034324;28;20075;-71
2023/10/20 02:13:14;;;;;;;10.50;8.02;;;8.90;99.90;;;;;;5032685;28;20053;-70
2023/10/20 02:16:01;;;;;;;10.55;7.78;;;8.90;99.90;;;;;;5032481;28;20065;-69
2023/10/20 02:18:47;;;;;;;10.32;7.85;;;8.90;99.90;;;;;;5034205;28;20084;-73
2023/10/20 02:21:32;;;;;;;9.25;7.57;;;8.90;99.90;;;;;;5035228;28;20064;-73
2023/10/20 02:24:18;;;;;;;9.85;7.32;;;8.90;99.90;;;;;;5039954;28;20475;-69
2023/10/20 02:27:05;;;;;;;8.38;6.43;;;8.90;99.90;;;;;;5041325;28;20041;-68
2023/10/20 02:29:51;;;;;;;8.85;6.82;;;8.90;99.90;;;;;;5045700;28;20045;-68
2023/10/20 02:32:37;;;;;;;8.52;6.80;;;8.90;99.90;;;;;;5036713;28;20075;-69
2023/10/20 02:35:23;;;;;;;7.38;5.82;;;8.90;99.90;;;;;;5032076;28;20092;-68
2023/10/20 02:38:09;;;;;;;8.90;6.80;;;8.90;99.90;;;;;;5033024;28;20057;-69
2023/10/20 02:40:55;;;;;;;8.75;5.97;;;8.90;99.90;;;;;;5033321;28;20045;-70
2023/10/20 02:43:41;;;;;;;8.10;6.03;;;8.90;99.90;;;;;;5031373;28;20052;-70
2023/10/20 02:46:27;;;;;;;8.30;5.95;;;8.80;99.90;;;;;;5032747;28;20549;-70
2023/10/20 02:49:13;;;;;;;8.02;5.60;;;8.80;99.90;;;;;;5039135;28;20100;-70
2023/10/20 02:51:59;;;;;;;6.93;5.22;;;8.80;99.90;;;;;;5034836;28;20041;-70
2023/10/20 02:54:46;;;;;;;8.45;5.93;;;8.80;99.90;;;;;;5032239;28;20049;-69
2023/10/20 02:57:32;;;;;;;7.60;6.03;;;8.70;99.90;;;;;;5033088;28;20278;-70
2023/10/20 03:00:18;;;;;;;5.90;4.40;;;8.70;99.90;;;;;;5032800;28;20406;-69
2023/10/20 03:03:05;;;;;;;6.65;5.22;;;8.70;99.90;;;;;;5034325;28;20084;-70
2023/10/20 03:05:51;;;;;;;6.25;4.50;;;8.60;99.90;;;;;;5032863;28;20065;-70
2023/10/20 03:08:38;;;;;;;6.30;4.63;;;8.60;99.90;;;;;;5049886;28;20482;-70
2023/10/20 03:11:24;;;;;;;5.22;3.92;;;8.60;99.90;;;;;;5045327;28;20458;-70
2023/10/20 03:14:10;;;;;;;5.45;4.10;;;8.60;99.90;;;;;;5032393;28;20409;-70
2023/10/20 03:16:56;;;;;;;6.00;4.05;;;8.60;99.90;;;;;;5039738;28;20319;-70
2023/10/20 03:19:44;;;;;;;6.55;4.50;;;8.60;99.90;;;;;;5043430;28;20250;-70
2023/10/20 03:22:30;;;;;;;5.18;4.43;;;8.50;99.90;;;;;;5031826;28;20125;-69
2023/10/20 03:25:18;;;;;;;5.47;3.90;;;8.60;99.90;;;;;;5032778;28;20120;-71
2023/10/20 03:28:05;;;;;;;6.57;4.45;;;8.50;99.90;;;;;;5045418;28;20048;-70
2023/10/20 03:30:51;;;;;;;6.07;4.15;;;8.50;99.90;;;;;;5049405;28;20049;-71
2023/10/20 03:33:37;;;;;;;7.85;4.55;;;8.50;99.90;;;;;;5049091;28;20046;-71
2023/10/20 03:36:23;;;;;;;5.95;4.45;;;8.50;99.90;;;;;;5032832;28;20037;-70
2023/10/20 03:39:21;;;;;;;6.70;4.20;;;8.50;99.90;;;;;;5032184;28;20434;-71
2023/10/20 03:42:07;;;;;;;5.97;4.30;;;8.50;99.90;;;;;;5030971;28;20056;-70
2023/10/20 03:44:54;;;;;;;6.50;4.88;;;8.50;99.90;;;;;;5041326;28;20041;-71
2023/10/20 03:47:40;;;;;;;6.18;4.30;;;8.40;99.90;;;;;;5031044;28;20502;-70
2023/10/20 03:50:26;;;;;;;6.40;4.85;;;8.50;99.90;;;;;;5038010;28;20578;-70
2023/10/20 03:53:18;;;;;;;6.88;4.50;;;8.50;99.90;;;;;;5032380;28;20128;-70
2023/10/20 03:56:07;;;;;;;6.28;5.13;;;8.50;99.90;;;;;;5039502;28;20041;-70
2023/10/20 03:58:53;;;;;;;6.05;4.20;;;8.40;99.90;;;;;;5030600;28;20056;-71
2023/10/20 04:01:39;;;;;;;6.30;4.68;;;8.40;99.90;;;;;;5038122;28;20147;-71
2023/10/20 04:04:25;;;;;;;6.05;4.13;;;8.40;99.90;;;;;;5041808;28;20521;-71
2023/10/20 04:07:11;;;;;;;7.05;4.88;;;8.40;99.90;;;;;;5037191;28;20053;-72
2023/10/20 04:09:59;;;;;;;7.20;4.85;;;8.40;99.90;;;;;;5015722;28;20094;-72
2023/10/20 04:12:45;;;;;;;8.23;5.82;;;8.40;99.90;;;;;;5030439;28;20065;-71
2023/10/20 04:15:35;;;;;;;6.45;4.55;;;8.40;99.90;;;;;;5031302;28;20045;-72
2023/10/20 04:18:26;;;;;;;7.13;5.30;;;8.40;99.90;;;;;;5032683;28;20084;-71
2023/10/20 04:21:12;;;;;;;7.57;4.63;;;8.40;99.90;;;;;;5033492;28;20041;-71
2023/10/20 04:23:58;;;;;;;6.30;4.60;;;8.40;99.90;;;;;;5031413;28;20053;-70
2023/10/20 04:26:44;;;;;;;8.32;5.43;;;8.30;99.90;;;;;;5018479;28;20124;-66
2023/10/20 04:29:47;;;;;;;8.05;5.55;;;8.30;99.90;;;;;;5062051;28;20048;-67
2023/10/20 04:41:55;;;;;;;7.25;5.35;;;8.30;99.90;;;;;;5049292;28;20045;-62
2023/10/20 04:44:58;;;;;;;;;;;8.30;99.90;;;;;;5035827;28;20049;-61
2023/10/20 04:53:54;;;;;;;7.28;5.35;;;8.20;99.90;;;;;;5045647;28;20037;-63
2023/10/20 04:57:14;;;;;;;7.60;5.53;;;8.20;99.90;;;;;;5049772;28;20068;-64
2023/10/20 04:59:46;;;;;;;7.43;5.32;;;8.20;99.90;;;;;;5042333;28;20045;-63
2023/10/20 05:02:40;;;;;;;7.93;5.78;;;8.20;99.90;;;;;;5041596;28;20041;-64
2023/10/20 05:10:58;;;;;;;7.28;5.43;;;8.20;99.90;;;;;;5037345;28;20049;-63
2023/10/20 05:13:44;;;;;;;7.18;5.30;;;8.10;99.90;;;;;;5030218;28;20045;-62
2023/10/20 05:16:33;;;;;;;10.10;6.93;;;8.10;99.90;;;;;;5040962;28;20053;-64
2023/10/20 05:19:19;;;;;;;8.35;5.70;;;8.20;99.90;;;;;;5047976;28;20045;-63
2023/10/20 05:22:05;;;;;;;7.70;5.88;;;8.10;99.90;;;;;;5049823;28;20052;-63
2023/10/20 05:24:51;;;;;;;8.05;6.38;;;8.10;99.90;;;;;;5052098;28;20429;-64
2023/10/20 05:27:38;;;;;;;8.52;5.85;;;8.10;99.90;;;;;;5042548;28;20052;-64
2023/10/20 05:30:24;;;;;;;8.25;6.32;;;8.10;99.90;;;;;;5043516;28;20037;-64
2023/10/20 05:33:11;;;;;;;8.10;6.40;;;8.10;99.90;;;;;;5033927;28;20061;-62
2023/10/20 05:36:03;;;;;;;10.20;7.15;;;8.10;99.90;;;;;;5041689;28;20055;-64
2023/10/20 05:38:49;;;;;;;11.05;6.88;;;8.10;99.90;;;;;;5042388;28;20025;-64
2023/10/20 05:41:35;;;;;;;11.48;6.45;;;8.10;99.90;;;;;;5020506;28;20073;-64
2023/10/20 05:44:23;;;;;;;10.10;7.20;;;8.10;99.90;;;;;;5046219;28;20041;-63
2023/10/20 05:47:09;;;;;;;9.95;7.18;;;8.10;99.90;;;;;;5045278;28;20061;-64
2023/10/20 05:49:57;;;;;;;10.10;7.32;;;8.10;99.90;;;;;;5027748;28;20042;-64
2023/10/20 05:52:42;;;;;;;10.27;7.10;;;8.10;99.90;;;;;;5029135;28;20049;-64
2023/10/20 05:55:28;;;;;;;7.45;5.95;;;8.00;99.90;;;;;;5029171;28;20096;-64
2023/10/20 05:58:15;;;;;;;9.98;6.85;;;8.00;99.90;;;;;;5044660;28;20155;-66
2023/10/20 06:01:05;;;;;;;9.13;7.00;;;8.10;99.90;;;;;;5043538;28;20498;-65
2023/10/20 06:03:51;;;;;;;9.57;7.53;;;8.00;99.90;;;;;;5047868;28;20037;-64
2023/10/20 06:06:37;;;;;;;10.13;6.60;;;8.00;99.90;;;;;;5040984;28;20426;-65
2023/10/20 06:09:25;;;;;;;11.43;7.68;;;8.00;99.90;;;;;;5048254;28;20056;-65
2023/10/20 06:12:12;;;;;;;10.80;7.30;;;8.00;99.90;;;;;;5036496;28;20045;-65
2023/10/20 06:14:58;;;;;;;11.48;7.57;;;7.90;99.90;;;;;;5039043;28;20038;-65
2023/10/20 06:17:44;;;;;;;10.68;7.53;;;7.90;99.90;;;;;;5035755;28;20068;-66
2023/10/20 06:20:30;;;;;;;11.27;8.55;;;7.90;99.90;;;;;;5058791;28;20712;-65
2023/10/20 06:23:16;;;;;;;10.13;7.55;;;7.90;99.90;;;;;;5037911;28;20045;-64
2023/10/20 06:26:02;;;;;;;9.93;7.57;;;7.90;99.90;;;;;;5037538;28;20159;-64
2023/10/20 06:28:48;;;;;;;13.07;8.20;;;7.90;99.90;;;;;;5032082;28;20151;-65
2023/10/20 06:34:23;;;;;;;11.15;7.38;;;7.90;99.90;;;;;;5040778;28;20038;-65
2023/10/20 06:37:13;;;;;;;9.57;6.93;;;7.90;99.90;;;;;;5041993;28;20111;-65
2023/10/20 06:39:59;;;;;;;11.63;8.15;;;7.90;99.90;;;;;;5037843;28;20092;-64
2023/10/20 06:42:45;;;;;;;10.02;7.75;;;7.90;99.90;;;;;;5032240;28;20037;-64
2023/10/20 06:45:31;;;;;;;11.35;7.43;;;7.90;99.90;;;;;;5035805;28;20057;-64
2023/10/20 06:48:17;;;;;;;8.65;6.63;;;7.90;99.90;;;;;;5039447;28;20053;-64
2023/10/20 06:51:03;;;;;;;9.10;6.85;;;7.80;99.90;;;;;;5045361;28;20076;-64
2023/10/20 06:53:49;;;;;;;9.57;7.22;;;7.90;99.90;;;;;;5045333;28;20047;-67
2023/10/20 06:56:36;;;;;;;9.95;7.32;;;7.80;99.90;;;;;;5051438;28;20496;-67
2023/10/20 06:59:22;;;;;;;11.57;7.78;;;7.90;99.90;;;;;;5035452;28;20049;-67
2023/10/20 07:02:09;;;;;;;9.05;7.15;;;7.90;99.90;;;;;;5047997;28;20029;-67
2023/10/20 07:04:56;;;;;;;10.02;7.60;;;7.90;99.90;;;;;;5039661;28;20053;-68
2023/10/20 07:07:42;;;;;;;9.82;7.00;;;7.90;99.90;;;;;;5044604;28;20058;-67
2023/10/20 07:10:28;;;;;;;16.27;7.55;;;7.90;99.90;;;;;;5043954;28;20071;-68
2023/10/20 07:13:13;;;;;;;8.80;6.88;;;7.80;99.90;;;;;;5041192;28;20572;-67
2023/10/20 07:16:00;;;;;;;10.27;8.00;;;7.80;99.90;;;;;;5050494;28;20037;-67
2023/10/20 07:18:47;;;;;;;12.55;8.25;;;7.80;99.90;;;;;;5033861;28;20087;-67
2023/10/20 07:21:34;;;;;;;9.88;6.88;;;7.80;99.90;;;;;;5038489;28;20041;-67
2023/10/20 07:24:20;;;;;;;12.48;7.80;;;7.70;99.90;;;;;;5030573;28;20158;-66
2023/10/20 07:27:06;;;;;;;8.65;6.43;;;7.70;99.90;;;;;;5031627;28;20045;-67
2023/10/20 07:29:52;;;;;;;10.98;7.82;;;7.70;99.90;;;;;;5030343;28;20044;-67
2023/10/20 07:32:38;;;;;;;10.77;7.85;;;7.60;99.90;;;;;;5033837;28;20523;-68
2023/10/20 07:35:24;;;;;;;9.80;6.95;;;7.60;99.90;;;;;;5030484;28;20180;-67
2023/10/20 07:38:12;;;;;;;8.43;6.57;;;7.70;99.90;;;;;;5031292;28;20041;-66
2023/10/20 07:41:06;;;;;;;9.05;6.80;;;7.60;99.90;;;;;;5050673;28;20441;-67
2023/10/20 07:43:52;;;;;;;9.85;7.10;;;7.60;99.90;;;;;;5047850;28;20079;-66
2023/10/20 07:46:41;;;;;;;10.18;7.43;;;7.70;99.90;;;;;;5051762;28;20029;-66
2023/10/20 07:49:27;;;;;;;9.98;7.50;;;7.60;99.90;;;;;;5036111;28;20046;-67
2023/10/20 07:52:13;;;;;;;9.23;6.97;;;7.60;99.90;;;;;;5030768;28;20084;-67
2023/10/20 07:55:01;;;;;;;14.95;9.65;;;7.60;99.90;;;;;;5030145;28;20360;-67
2023/10/20 07:57:47;;;;;;;14.32;9.60;;;7.60;99.90;;;;;;5030984;28;20045;-67
2023/10/20 08:00:33;;;;;;;16.92;11.48;;;7.60;99.90;;;;;;5031082;28;20095;-67
2023/10/20 08:03:19;;;;;;;15.95;10.48;;;7.50;99.90;;;;;;5030985;28;20038;-67
2023/10/20 08:06:05;;;;;;;14.93;10.80;;;7.50;99.90;;;;;;5037505;28;20453;-67
2023/10/20 08:08:52;;;;;;;17.77;10.93;;;7.50;99.90;;;;;;5040064;28;20465;-67
2023/10/20 08:11:42;;;;;;;14.15;11.25;;;7.50;99.90;;;;;;5050053;28;20516;-66
2023/10/20 08:14:28;;;;;;;13.68;9.25;;;7.40;99.90;;;;;;5034113;28;20120;-67
2023/10/20 08:17:14;;;;;;;11.15;8.20;;;7.50;99.90;;;;;;5041159;28;20037;-66
2023/10/20 08:20:00;;;;;;;9.23;6.60;;;7.40;99.90;;;;;;5031084;28;20045;-67
2023/10/20 08:22:47;;;;;;;10.98;8.20;;;7.40;99.90;;;;;;5029672;28;20072;-67
2023/10/20 08:25:36;;;;;;;9.70;7.07;;;7.40;99.90;;;;;;5033060;28;20053;-68
2023/10/20 08:28:24;;;;;;;8.93;6.57;;;7.40;99.90;;;;;;5032680;28;20484;-69
2023/10/20 08:31:17;;;;;;;8.85;6.65;;;7.40;99.90;;;;;;5034280;28;20132;-68
2023/10/20 08:34:03;;;;;;;9.13;5.82;;;7.40;99.90;;;;;;5047050;28;20044;-68
2023/10/20 08:36:49;;;;;;;8.55;5.95;;;7.40;99.90;;;;;;5049724;28;20037;-68
2023/10/20 08:39:35;;;;;;;9.55;5.97;;;7.40;99.90;;;;;;5051028;28;20033;-68
2023/10/20 08:42:24;;;;;;;8.02;6.07;;;7.40;99.90;;;;;;5035443;28;20044;-69
2023/10/20 08:45:13;;;;;;;8.82;7.00;;;7.40;99.90;;;;;;5050187;28;20171;-68
2023/10/20 08:48:03;;;;;;;8.25;5.72;;;7.50;99.90;;;;;;5028570;28;20078;-70
2023/10/20 08:50:50;;;;;;;8.40;6.32;;;7.50;99.90;;;;;;5030301;28;20064;-68
2023/10/20 08:53:36;;;;;;;9.25;6.72;;;7.50;99.90;;;;;;5030031;28;20068;-69
2023/10/20 08:56:23;;;;;;;9.90;7.00;;;7.50;99.90;;;;;;5029835;28;20482;-68
2023/10/20 08:59:08;;;;;;;9.20;6.22;;;7.50;99.90;;;;;;5029885;28;20045;-67
2023/10/20 09:01:55;;;;;;;9.50;6.93;;;7.50;99.90;;;;;;5029669;28;20044;-68
2023/10/20 09:04:41;;;;;;;10.30;7.60;;;7.50;99.90;;;;;;5028058;28;20033;-68
2023/10/20 09:07:27;;;;;;;9.50;6.80;;;7.50;99.90;;;;;;5038907;28;20486;-68
2023/10/20 09:10:13;;;;;;;8.85;6.43;;;7.50;99.90;;;;;;5050169;28;20041;-68
2023/10/20 09:13:00;;;;;;;10.10;6.32;;;7.50;99.90;;;;;;5047957;28;20057;-69
2023/10/20 09:15:46;;;;;;;7.90;5.82;;;7.50;99.90;;;;;;5049800;28;20071;-69
2023/10/20 09:18:32;;;;;;;9.55;7.28;;;7.40;99.90;;;;;;5049120;28;20099;-69
2023/10/20 09:21:20;;;;;;;10.32;7.07;;;7.50;99.90;;;;;;5048684;28;20040;-69
2023/10/20 09:24:08;;;;;;;11.13;7.68;;;7.40;99.90;;;;;;5061390;28;20132;-68
2023/10/20 09:26:55;;;;;;;9.02;6.88;;;7.40;99.90;;;;;;5047573;28;20082;-69
2023/10/20 09:29:41;;;;;;;8.85;6.75;;;7.40;99.90;;;;;;5028775;28;20091;-69
2023/10/20 09:32:27;;;;;;;9.52;7.22;;;7.40;99.90;;;;;;5029117;28;20038;-68
2023/10/20 09:35:13;;;;;;;8.63;6.40;;;7.40;99.90;;;;;;5028843;28;20518;-69
2023/10/20 09:38:05;;;;;;;9.13;7.10;;;7.30;99.90;;;;;;5028920;28;20068;-68
2023/10/20 09:41:01;;;;;;;8.07;5.72;;;7.30;99.90;;;;;;5028063;28;20482;-69
2023/10/20 09:43:51;;;;;;;8.98;5.47;;;7.30;99.90;;;;;;5047046;28;20060;-69
2023/10/20 09:46:40;;;;;;;9.45;6.38;;;7.30;99.90;;;;;;5028784;28;20045;-68
2023/10/20 09:49:27;;;;;;;6.40;4.97;;;7.20;99.90;;;;;;5030660;28;20033;-69
2023/10/20 09:52:13;;;;;;;7.47;5.57;;;7.20;99.90;;;;;;5027686;28;20049;-69
2023/10/20 09:55:00;;;;;;;7.70;5.75;;;7.20;99.90;;;;;;5030922;28;20402;-71
2023/10/20 09:57:47;;;;;;;10.13;5.80;;;7.20;99.90;;;;;;5030250;28;20056;-69
2023/10/20 10:00:35;;;;;;;8.38;5.13;;;7.20;99.90;;;;;;5050630;28;20041;-69
2023/10/20 10:03:40;;;;;;;8.63;6.10;;;7.20;99.90;;;;;;5049169;28;20037;-70
2023/10/20 10:06:32;;;;;;;7.10;5.05;;;7.20;99.90;;;;;;5029388;28;20133;-68
2023/10/20 10:09:18;;;;;;;7.20;4.88;;;7.20;99.90;;;;;;5034360;28;20041;-69
2023/10/20 10:12:15;;;;;;;6.90;5.43;;;7.20;99.90;;;;;;5050719;28;20048;-68
2023/10/20 10:15:14;;;;;;;7.10;5.38;;;7.20;99.90;;;;;;5044835;28;20045;-69
2023/10/20 10:18:11;;;;;;;6.93;4.85;;;7.10;99.90;;;;;;5043623;28;20045;-68
2023/10/20 10:21:02;;;;;;;7.65;5.40;;;7.10;99.90;;;;;;5046376;28;20033;-68
2023/10/20 10:24:16;;;;;;;6.15;4.50;;;7.10;99.90;;;;;;5032670;28;20037;-68
2023/10/20 10:27:04;;;;;;;8.13;5.10;;;7.10;99.90;;;;;;5032225;28;20103;-67
2023/10/20 10:33:10;;;;;;;6.63;4.70;;;7.20;99.90;;;;;;5010898;28;20502;-67
2023/10/20 10:36:03;;;;;;;5.25;3.97;;;7.20;99.90;;;;;;5010162;28;20046;-68
2023/10/20 10:38:50;;;;;;;7.70;4.57;;;7.10;99.90;;;;;;5000611;28;20084;-68
2023/10/20 10:41:36;;;;;;;7.38;4.50;;;7.20;99.90;;;;;;5010219;28;20046;-68
2023/10/20 10:44:22;;;;;;;6.13;4.70;;;7.20;99.90;;;;;;5003606;28;20523;-67
2023/10/20 10:47:22;;;;;;;6.00;4.30;;;7.20;99.90;;;;;;4998867;28;20521;-67
2023/10/20 10:50:09;;;;;;;6.55;4.85;;;7.20;99.90;;;;;;5013039;28;20089;-66
2023/10/20 10:52:55;;;;;;;6.60;4.25;;;7.10;99.90;;;;;;4995155;28;20084;-67
2023/10/20 10:55:42;;;;;;;5.75;4.20;;;7.20;99.90;;;;;;4992726;28;20042;-67
2023/10/20 10:58:30;;;;;;;6.75;4.60;;;7.20;99.90;;;;;;4994032;28;20045;-67
2023/10/20 11:01:16;;;;;;;6.03;4.32;;;7.20;99.90;;;;;;5009958;28;20480;-67
2023/10/20 11:04:02;;;;;;;9.40;4.60;;;7.20;99.90;;;;;;5007515;28;20096;-68
2023/10/20 11:06:48;;;;;;;6.05;4.10;;;7.20;99.90;;;;;;4998672;28;20038;-67
2023/10/20 11:09:35;;;;;;;6.15;4.63;;;7.20;99.90;;;;;;5023635;28;20045;-67
2023/10/20 11:12:24;;;;;;;6.05;4.35;;;7.20;99.90;;;;;;5044227;28;20041;-68
2023/10/20 11:15:10;;;;;;;5.43;4.35;;;7.30;99.90;;;;;;5040310;28;20033;-68
2023/10/20 11:18:01;;;;;;;6.20;4.78;;;7.20;99.90;;;;;;5031685;28;20037;-67
2023/10/20 11:20:49;;;;;;;9.10;5.63;;;7.20;99.90;;;;;;5038771;28;20076;-68
2023/10/20 11:23:35;;;;;;;7.85;4.93;;;7.30;99.90;;;;;;5053917;28;20128;-68
2023/10/20 11:26:24;;;;;;;6.78;4.88;;;7.30;99.90;;;;;;5056420;28;20040;-68
2023/10/20 11:29:10;;;;;;;6.50;4.75;;;7.30;99.90;;;;;;5051209;28;20247;-67
2023/10/20 11:31:59;;;;;;;9.88;5.55;;;7.30;99.90;;;;;;5041554;28;20065;-67
2023/10/20 11:34:45;;;;;;;4.45;3.83;;;7.30;99.90;;;;;;5031323;28;20041;-67
2023/10/20 11:37:32;;;;;;;6.53;4.15;;;7.30;99.90;;;;;;5031464;28;20044;-67
2023/10/20 11:40:21;;;;;;;5.30;3.78;;;7.30;99.90;;;;;;5030268;28;20053;-67
2023/10/20 11:43:07;;;;;;;6.55;3.50;;;7.30;99.90;;;;;;5034534;28;20041;-68
2023/10/20 11:45:53;;;;;;;6.88;3.90;;;7.30;99.90;;;;;;5031289;28;20045;-68
2023/10/20 11:48:40;;;;;;;5.45;3.92;;;7.30;99.90;;;;;;5033377;28;20071;-71
2023/10/20 11:51:26;;;;;;;5.68;4.03;;;7.30;99.90;;;;;;5039459;28;20042;-69
2023/10/20 11:54:12;;;;;;;5.82;3.63;;;7.30;99.90;;;;;;5031026;28;20042;-68
2023/10/20 11:56:58;;;;;;;7.82;3.78;;;7.30;99.90;;;;;;5033456;28;20099;-67
2023/10/20 11:59:44;;;;;;;4.30;3.33;;;7.30;99.90;;;;;;5045307;28;20070;-69
2023/10/20 12:02:30;;;;;;;4.05;3.40;;;7.30;99.90;;;;;;5048746;28;20131;-68
2023/10/20 12:05:16;;;;;;;3.75;2.70;;;7.30;99.90;;;;;;5031727;28;20049;-69
2023/10/20 12:08:04;;;;;;;5.18;3.60;;;7.30;99.90;;;;;;5033474;28;20152;-70
2023/10/20 12:10:50;;;;;;;6.25;3.13;;;7.30;99.90;;;;;;5038533;28;20045;-69
2023/10/20 12:13:36;;;;;;;5.90;4.03;;;7.30;99.90;;;;;;5045014;28;20409;-70
2023/10/20 12:16:24;;;;;;;4.13;3.08;;;7.30;99.90;;;;;;5032102;28;20096;-70
2023/10/20 12:19:11;;;;;;;3.88;3.05;;;7.30;99.90;;;;;;5043478;28;20130;-68
2023/10/20 12:21:57;;;;;;;3.92;2.75;;;7.30;99.90;;;;;;5028612;28;20251;-68
2023/10/20 12:24:43;;;;;;;4.68;2.75;;;7.30;99.90;;;;;;5031080;28;20049;-67
2023/10/20 12:27:28;;;;;;;4.25;2.78;;;7.30;99.90;;;;;;5036617;28;20045;-70
2023/10/20 12:30:15;;;;;;;3.30;2.58;;;7.30;99.90;;;;;;5049707;28;20805;-66
2023/10/20 12:33:01;;;;;;;4.55;3.00;;;7.30;99.90;;;;;;5048289;28;20065;-67
2023/10/20 12:35:47;;;;;;;5.13;3.00;;;7.30;99.90;;;;;;5044298;28;20150;-69
2023/10/20 12:38:33;;;;;;;4.65;2.90;;;7.30;99.90;;;;;;5029516;28;20052;-68
2023/10/20 12:41:19;;;;;;;3.97;2.80;;;7.30;99.90;;;;;;5040192;28;20092;-67
2023/10/20 12:44:06;;;;;;;3.45;2.70;;;7.20;99.90;;;;;;5045668;28;20052;-68
2023/10/20 12:46:51;;;;;;;4.45;3.22;;;7.20;99.90;;;;;;5033124;28;20103;-66
2023/10/20 12:49:37;;;;;;;4.88;2.95;;;7.20;99.90;;;;;;5039252;28;20051;-67
2023/10/20 12:52:23;;;;;;;5.00;2.60;;;7.20;99.90;;;;;;5033261;28;20148;-67
2023/10/20 12:55:09;;;;;;;4.43;2.92;;;7.20;99.90;;;;;;5037124;28;20067;-67
2023/10/20 12:57:57;;;;;;;3.55;2.80;;;7.20;99.90;;;;;;5028516;28;20513;-67
2023/10/20 13:00:42;;;;;;;5.53;3.28;;;7.20;99.90;;;;;;5043724;28;20045;-67
2023/10/20 13:03:29;;;;;;;4.55;3.00;;;7.20;99.90;;;;;;5036820;28;20067;-67
2023/10/20 13:06:17;;;;;;;3.80;2.45;;;7.20;99.90;;;;;;5036125;28;20049;-67
2023/10/20 13:09:07;;;;;;;4.25;2.30;;;7.20;99.90;;;;;;5043572;28;20049;-65
2023/10/20 13:11:56;;;;;;;3.85;2.72;;;7.20;99.90;;;;;;5031162;28;20041;-67
2023/10/20 13:14:42;;;;;;;4.65;3.00;;;7.20;99.90;;;;;;5046876;28;20076;-65
2023/10/20 13:17:28;;;;;;;3.50;2.42;;;7.20;99.90;;;;;;5048245;28;20093;-66
2023/10/20 13:20:14;;;;;;;4.68;2.70;;;7.20;99.90;;;;;;5046738;28;20045;-65
2023/10/20 13:23:00;;;;;;;5.63;2.63;;;7.20;99.90;;;;;;5032762;28;20498;-67
2023/10/20 13:25:48;;;;;;;3.97;2.72;;;7.20;99.90;;;;;;5038098;28;20087;-66
2023/10/20 13:28:36;;;;;;;4.35;2.70;;;7.20;99.90;;;;;;5033318;28;20061;-66
2023/10/20 13:31:22;;;;;;;3.60;1.92;;;7.20;99.90;;;;;;5034823;28;20040;-67
2023/10/20 13:34:08;;;;;;;3.83;2.60;;;7.20;99.90;;;;;;5037383;28;20045;-65
2023/10/20 13:36:54;;;;;;;3.97;2.33;;;7.20;99.90;;;;;;5029187;28;20037;-65
2023/10/20 13:39:40;;;;;;;3.80;2.60;;;7.20;99.90;;;;;;5028990;28;20499;-66
2023/10/20 13:42:26;;;;;;;3.55;2.72;;;7.20;99.90;;;;;;5028501;28;20041;-68
2023/10/20 13:45:12;;;;;;;3.38;2.70;;;7.20;99.90;;;;;;5030523;28;20532;-67
2023/10/20 13:47:58;;;;;;;3.45;2.17;;;7.20;99.90;;;;;;5028862;28;20085;-67
2023/10/20 13:50:44;;;;;;;2.83;1.80;;;7.20;99.90;;;;;;5028945;28;20044;-68
2023/10/20 13:53:30;;;;;;;3.22;1.90;;;7.10;99.90;;;;;;5039411;28;20051;-67
2023/10/20 13:56:17;;;;;;;3.15;1.90;;;7.10;99.90;;;;;;5040114;28;20045;-67
2023/10/20 13:59:03;;;;;;;4.75;2.35;;;7.10;99.90;;;;;;5031416;28;20037;-67
2023/10/20 14:01:49;;;;;;;4.40;1.80;;;7.10;99.90;;;;;;5042408;28;20029;-68
2023/10/20 14:04:36;;;;;;;2.47;1.70;;;7.10;99.90;;;;;;5047882;28;20523;-66
2023/10/20 14:07:22;;;;;;;2.47;1.83;;;7.10;99.90;;;;;;5031728;28;20088;-66
2023/10/20 14:10:08;;;;;;;2.08;1.60;;;7.10;99.90;;;;;;5042102;28;20040;-66
2023/10/20 14:12:55;;;;;;;4.25;2.20;;;7.00;99.90;;;;;;5036695;28;20055;-67
2023/10/20 14:15:43;;;;;;;3.97;2.40;;;7.00;99.90;;;;;;5037169;28;20033;-66
2023/10/20 14:18:29;;;;;;;3.00;2.03;;;7.00;99.90;;;;;;5039863;28;20402;-66
2023/10/20 14:21:15;;;;;;;2.92;1.88;;;7.00;99.90;;;;;;5043151;28;20060;-67
2023/10/20 14:24:01;;;;;;;3.58;1.80;;;7.00;99.90;;;;;;5048084;28;20539;-66
2023/10/20 14:26:47;;;;;;;2.67;1.75;;;6.90;99.90;;;;;;5031004;28;20040;-66
2023/10/20 14:29:33;;;;;;;3.58;2.35;;;6.90;99.90;;;;;;5029625;28;20057;-67
2023/10/20 14:32:19;;;;;;;3.95;2.28;;;6.90;99.90;;;;;;5029667;28;20517;-67
2023/10/20 14:35:06;;;;;;;3.35;2.10;;;6.90;99.90;;;;;;5047500;28;20493;-67
2023/10/20 14:37:52;;;;;;;3.13;1.98;;;6.90;99.90;;;;;;5041189;28;20084;-67
2023/10/20 14:40:38;;;;;;;4.22;2.55;;;6.90;99.90;;;;;;5040049;28;20231;-66
2023/10/20 14:43:24;;;;;;;2.63;1.70;;;6.90;99.90;;;;;;5037740;28;20136;-66
2023/10/20 14:46:10;;;;;;;2.55;1.85;;;6.90;99.90;;;;;;5028377;28;20037;-66
2023/10/20 14:48:56;;;;;;;2.38;1.70;;;6.90;99.90;;;;;;5041323;28;20057;-67
2023/10/20 14:51:42;;;;;;;3.60;2.10;;;6.90;99.90;;;;;;5049222;28;20036;-66
2023/10/20 14:54:30;;;;;;;2.80;2.00;;;6.80;99.90;;;;;;5048619;28;20037;-66
2023/10/20 14:57:15;;;;;;;4.18;1.70;;;6.90;99.90;;;;;;5050987;28;20068;-68
2023/10/20 15:00:06;;;;;;;2.55;1.92;;;6.90;99.90;;;;;;5042646;28;20416;-66
2023/10/20 15:02:52;;;;;;;2.70;2.00;;;6.90;99.90;;;;;;5030715;28;20053;-66
2023/10/20 15:05:39;;;;;;;2.17;1.67;;;6.80;99.90;;;;;;5031124;28;20061;-66